Time;durP1;ratioP1;P1;durP2;ratioP2;P2;SDS_P1;SDS_P2;PMS_P1;PMS_P2;Temp;Humidity;BMP_temperature;BMP_pressure;BME280_temperature;BME280_humidity;BME280_pressure;Samples;Min_cycle;Max_cycle;Signal;HPM_P1;HPM_P2
2023/01/21 00:04:55;;;;;;;12.1;6;;;;;;;1.4;93;98380;;;;
2023/01/21 00:15:55;;;;;;;12.1;6;;;;;;;1.4;92.7;98390;;;;
2023/01/21 00:26:55;;;;;;;12.1;6;;;;;;;1.4;92.8;98390;;;;
2023/01/21 00:37:55;;;;;;;9.6;5.1;;;;;;;1.3;92.7;98400;;;;
2023/01/21 00:47:55;;;;;;;9.6;5.1;;;;;;;1.2;92.2;98400;;;;
2023/01/21 00:58:55;;;;;;;9.6;5.1;;;;;;;1.2;92.5;98400;;;;
2023/01/21 01:09:55;;;;;;;7.8;4.5;;;;;;;1.2;92.5;98420;;;;
2023/01/21 01:20:55;;;;;;;7.8;4.5;;;;;;;1;91.8;98420;;;;
2023/01/21 01:30:55;;;;;;;11.2;5.9;;;;;;;1;92.1;98410;;;;
2023/01/21 01:41:55;;;;;;;11.2;5.9;;;;;;;0.9;92.3;98400;;;;
2023/01/21 01:52:55;;;;;;;11.2;5.9;;;;;;;0.8;92.4;98380;;;;
2023/01/21 02:03:59;;;;;;;14.1;7.1;;;;;;;0.7;92.3;98380;;;;
2023/01/21 02:13:55;;;;;;;14.1;7.1;;;;;;;0.7;92.6;98380;;;;
2023/01/21 02:23:55;;;;;;;14.1;7.1;;;;;;;0.6;92.8;98380;;;;
2023/01/21 02:34:55;;;;;;;10.9;7.1;;;;;;;0.7;93;98380;;;;
2023/01/21 02:44:55;;;;;;;10.9;7.1;;;;;;;0.7;92.8;98380;;;;
2023/01/21 02:55:55;;;;;;;10.9;7.1;;;;;;;0.6;92.4;98370;;;;
2023/01/21 03:05:55;;;;;;;9.9;5.6;;;;;;;0.6;92.9;98370;;;;
2023/01/21 03:17:00;;;;;;;9.9;5.6;;;;;;;0.6;92.8;98360;;;;
2023/01/21 03:26:58;;;;;;;9.9;5.6;;;;;;;0.6;92.8;98370;;;;
2023/01/21 03:36:55;;;;;;;8.9;4.8;;;;;;;0.6;92.9;98370;;;;
2023/01/21 03:46:56;;;;;;;8.9;4.8;;;;;;;0.6;92.9;98380;;;;
2023/01/21 03:57:56;;;;;;;8.9;4.8;;;;;;;0.5;93.3;98370;;;;
2023/01/21 04:07:56;;;;;;;8.1;4;;;;;;;0.7;93.8;98370;;;;
2023/01/21 04:18:57;;;;;;;8.1;4;;;;;;;0.7;93.9;98370;;;;
2023/01/21 04:29:55;;;;;;;11.5;4.6;;;;;;;0.7;93.5;98370;;;;
2023/01/21 04:40:55;;;;;;;11.5;4.6;;;;;;;0.7;93.2;98360;;;;
2023/01/21 04:50:56;;;;;;;11.5;4.6;;;;;;;0.7;93.3;98350;;;;
2023/01/21 05:01:56;;;;;;;7.8;4.4;;;;;;;0.6;93.1;98360;;;;
2023/01/21 05:12:55;;;;;;;7.8;4.4;;;;;;;0.7;93.4;98370;;;;
2023/01/21 05:22:56;;;;;;;7.8;4.4;;;;;;;0.7;92.7;98360;;;;
2023/01/21 05:32:55;;;;;;;4.9;2.3;;;;;;;0.7;93;98360;;;;
2023/01/21 05:43:56;;;;;;;4.9;2.3;;;;;;;0.8;93;98370;;;;
2023/01/21 05:53:56;;;;;;;4.9;2.3;;;;;;;0.8;92.9;98370;;;;
2023/01/21 06:04:55;;;;;;;4.6;2.7;;;;;;;0.9;92.8;98380;;;;
2023/01/21 06:15:58;;;;;;;4.6;2.7;;;;;;;0.8;92.6;98380;;;;
2023/01/21 06:26:56;;;;;;;4.6;2.7;;;;;;;0.9;92.6;98390;;;;
2023/01/21 06:36:55;;;;;;;9.5;4.6;;;;;;;1;92.8;98400;;;;
2023/01/21 06:47:55;;;;;;;9.5;4.6;;;;;;;0.9;92;98410;;;;
2023/01/21 06:58:56;;;;;;;7.8;3.7;;;;;;;0.9;91.9;98420;;;;
2023/01/21 07:08:55;;;;;;;7.8;3.7;;;;;;;1;92.5;98430;;;;
2023/01/21 07:18:56;;;;;;;7.8;3.7;;;;;;;1;92.2;98440;;;;
2023/01/21 07:28:56;;;;;;;10.4;4.9;;;;;;;1;91.9;98450;;;;
2023/01/21 07:39:56;;;;;;;10.4;4.9;;;;;;;1.1;92.1;98460;;;;
2023/01/21 07:49:56;;;;;;;10.4;4.9;;;;;;;1.1;91.7;98470;;;;
2023/01/21 08:00:56;;;;;;;11.6;5.6;;;;;;;1.5;91.9;98480;;;;
2023/01/21 08:10:56;;;;;;;11.6;5.6;;;;;;;1.4;91.4;98480;;;;
2023/01/21 08:20:56;;;;;;;11.6;5.6;;;;;;;1.6;91.4;98480;;;;
2023/01/21 08:31:56;;;;;;;19.9;12.2;;;;;;;1.7;91;98490;;;;
2023/01/21 08:42:56;;;;;;;19.9;12.2;;;;;;;1.8;90.3;98500;;;;
2023/01/21 08:52:56;;;;;;;19.9;12.2;;;;;;;2;91;98510;;;;
2023/01/21 09:02:56;;;;;;;15.5;8.8;;;;;;;1.8;89.6;98530;;;;
2023/01/21 09:13:59;;;;;;;15.5;8.8;;;;;;;1.8;89.3;98540;;;;
2023/01/21 09:23:56;;;;;;;15.5;8.8;;;;;;;2;89.2;98550;;;;
2023/01/21 09:34:56;;;;;;;11;5.7;;;;;;;1.9;89.4;98550;;;;
2023/01/21 09:45:56;;;;;;;11;5.7;;;;;;;2.3;89.9;98540;;;;
2023/01/21 09:55:56;;;;;;;11;5.7;;;;;;;2.3;89.4;98560;;;;
2023/01/21 10:06:57;;;;;;;12.6;7.9;;;;;;;2.6;89.7;98570;;;;
2023/01/21 10:17:56;;;;;;;12.6;7.9;;;;;;;2.6;88.7;98570;;;;
2023/01/21 10:28:56;;;;;;;12.2;7.7;;;;;;;2.7;87;98570;;;;
2023/01/21 10:38:56;;;;;;;12.2;7.7;;;;;;;2.7;88.6;98570;;;;
2023/01/21 10:49:56;;;;;;;12.2;7.7;;;;;;;2.8;87.9;98570;;;;
2023/01/21 11:00:56;;;;;;;13;8.9;;;;;;;3.1;87.2;98570;;;;
2023/01/21 11:11:56;;;;;;;13;8.9;;;;;;;3.1;85.7;98570;;;;
2023/01/21 11:21:56;;;;;;;13;8.9;;;;;;;3.3;87;98570;;;;
2023/01/21 11:32:56;;;;;;;14.2;8.2;;;;;;;3.4;85.3;98570;;;;
2023/01/21 11:42:56;;;;;;;14.2;8.2;;;;;;;3.5;84.6;98570;;;;
2023/01/21 11:53:56;;;;;;;14.2;8.2;;;;;;;3.6;84.8;98580;;;;
2023/01/21 12:03:56;;;;;;;14.5;9.6;;;;;;;3.4;86.1;98590;;;;
2023/01/21 12:13:56;;;;;;;14.5;9.6;;;;;;;3.6;86.2;98580;;;;
2023/01/21 12:23:56;;;;;;;14.5;9.6;;;;;;;3.8;86.1;98590;;;;
2023/01/21 12:33:56;;;;;;;14.1;9.2;;;;;;;3.6;85.5;98610;;;;
2023/01/21 12:43:56;;;;;;;14.1;9.2;;;;;;;3.5;84;98620;;;;
2023/01/21 12:54:56;;;;;;;14.1;9.2;;;;;;;3.4;84.5;98640;;;;
2023/01/21 13:04:56;;;;;;;17.3;10;;;;;;;3.1;83.7;98650;;;;
2023/01/21 13:15:56;;;;;;;17.3;10;;;;;;;3.1;83.6;98670;;;;
2023/01/21 13:26:56;;;;;;;17.3;10;;;;;;;3.1;84.2;98690;;;;
2023/01/21 13:37:56;;;;;;;14;9.2;;;;;;;3.2;83.7;98700;;;;
2023/01/21 13:47:56;;;;;;;14;9.2;;;;;;;3;83.8;98710;;;;
2023/01/21 13:57:56;;;;;;;13.3;8.2;;;;;;;2.7;83.5;98710;;;;
2023/01/21 14:07:56;;;;;;;13.3;8.2;;;;;;;2.7;84.1;98720;;;;
2023/01/21 14:18:56;;;;;;;13.3;8.2;;;;;;;2.5;85;98740;;;;
2023/01/21 14:29:56;;;;;;;14.7;9;;;;;;;2.2;85.4;98750;;;;
2023/01/21 14:40:56;;;;;;;14.7;9;;;;;;;2;85.9;98770;;;;
2023/01/21 14:50:56;;;;;;;14.7;9;;;;;;;1.8;86.5;98800;;;;
2023/01/21 15:00:56;;;;;;;15.3;8.3;;;;;;;1.8;86.9;98820;;;;
2023/01/21 15:11:56;;;;;;;15.3;8.3;;;;;;;1.8;87;98830;;;;
2023/01/21 15:22:56;;;;;;;15.3;8.3;;;;;;;1.9;87.1;98850;;;;
2023/01/21 15:32:56;;;;;;;23.4;14.9;;;;;;;1.9;86.8;98870;;;;
2023/01/21 15:43:57;;;;;;;23.4;14.9;;;;;;;2;86.7;98880;;;;
2023/01/21 15:54:59;;;;;;;23.4;14.9;;;;;;;2;86.6;98900;;;;
2023/01/21 16:04:56;;;;;;;24.4;14.7;;;;;;;2;86.6;98910;;;;
2023/01/21 16:14:56;;;;;;;24.4;14.7;;;;;;;1.9;86.6;98910;;;;
2023/01/21 16:24:56;;;;;;;24.4;14.7;;;;;;;1.8;86.8;98930;;;;
2023/01/21 16:34:56;;;;;;;20.8;13;;;;;;;1.8;87;98930;;;;
2023/01/21 16:45:56;;;;;;;20.8;13;;;;;;;1.8;87.1;98940;;;;
2023/01/21 16:55:56;;;;;;;20.8;13;;;;;;;1.7;87.3;98950;;;;
2023/01/21 17:06:56;;;;;;;31.5;21.3;;;;;;;1.7;87.7;98960;;;;
2023/01/21 17:17:56;;;;;;;31.5;21.3;;;;;;;1.6;87.9;98960;;;;
2023/01/21 17:28:56;;;;;;;25.3;16.8;;;;;;;1.7;87.9;98990;;;;
2023/01/21 17:38:56;;;;;;;25.3;16.8;;;;;;;1.7;87.9;99020;;;;
2023/01/21 17:49:56;;;;;;;25.3;16.8;;;;;;;1.7;87.8;99030;;;;
2023/01/21 18:00:56;;;;;;;31.8;19.3;;;;;;;1.7;87.9;99030;;;;
2023/01/21 18:10:56;;;;;;;31.8;19.3;;;;;;;1.8;87.8;99050;;;;
2023/01/21 18:21:58;;;;;;;31.8;19.3;;;;;;;1.8;87.8;99070;;;;
2023/01/21 18:31:56;;;;;;;53.9;28.5;;;;;;;1.6;87.7;99080;;;;
2023/01/21 18:41:56;;;;;;;53.9;28.5;;;;;;;1.6;87.8;99090;;;;
2023/01/21 18:51:56;;;;;;;53.9;28.5;;;;;;;1.6;87.7;99090;;;;
2023/01/21 19:02:56;;;;;;;40.8;23.7;;;;;;;1.6;88;99100;;;;
2023/01/21 19:13:56;;;;;;;40.8;23.7;;;;;;;1.6;88;99110;;;;
2023/01/21 19:24:56;;;;;;;40.8;23.7;;;;;;;1.5;88;99130;;;;
2023/01/21 19:35:56;;;;;;;40.1;24.1;;;;;;;1.4;88.1;99140;;;;
2023/01/21 19:45:56;;;;;;;40.1;24.1;;;;;;;1.4;88.4;99160;;;;
2023/01/21 19:55:56;;;;;;;40.1;24.1;;;;;;;1.5;88.6;99170;;;;
2023/01/21 20:05:56;;;;;;;36.6;24.2;;;;;;;1.5;88.5;99170;;;;
2023/01/21 20:16:56;;;;;;;36.6;24.2;;;;;;;1.6;88.4;99190;;;;
2023/01/21 20:26:56;;;;;;;43.6;26.4;;;;;;;1.5;88.2;99200;;;;
2023/01/21 20:37:57;;;;;;;43.6;26.4;;;;;;;1.6;88.2;99210;;;;
2023/01/21 20:48:56;;;;;;;43.6;26.4;;;;;;;1.6;88.2;99220;;;;
2023/01/21 20:58:56;;;;;;;37;23.5;;;;;;;1.7;87.9;99240;;;;
2023/01/21 21:08:56;;;;;;;37;23.5;;;;;;;1.6;87.8;99240;;;;
2023/01/21 21:18:56;;;;;;;37;23.5;;;;;;;1.5;87.7;99250;;;;
2023/01/21 21:29:58;;;;;;;33.1;19.8;;;;;;;1.4;88;99260;;;;
2023/01/21 21:39:56;;;;;;;33.1;19.8;;;;;;;1.5;88.2;99260;;;;
2023/01/21 21:50:56;;;;;;;33.1;19.8;;;;;;;1.4;88.3;99260;;;;
2023/01/21 22:01:59;;;;;;;33.3;23;;;;;;;1.4;88.4;99270;;;;
2023/01/21 22:12:56;;;;;;;33.3;23;;;;;;;1.5;88.6;99280;;;;
2023/01/21 22:22:56;;;;;;;33.3;23;;;;;;;1.4;88.7;99280;;;;
2023/01/21 22:32:56;;;;;;;35.7;22.4;;;;;;;1.4;88.8;99290;;;;
2023/01/21 22:43:56;;;;;;;35.7;22.4;;;;;;;1.3;88.9;99300;;;;
2023/01/21 22:53:56;;;;;;;35.7;22.4;;;;;;;1.3;89.1;99300;;;;
2023/01/21 23:04:56;;;;;;;33.3;21;;;;;;;1.1;89.2;99300;;;;
2023/01/21 23:15:56;;;;;;;33.3;21;;;;;;;1.2;89.5;99300;;;;
2023/01/21 23:26:56;;;;;;;34.3;20.6;;;;;;;1;89.6;99310;;;;
2023/01/21 23:36:56;;;;;;;34.3;20.6;;;;;;;1;89.7;99310;;;;
2023/01/21 23:47:56;;;;;;;34.3;20.6;;;;;;;0.9;89.6;99330;;;;
2023/01/21 23:57:56;;;;;;;33;20.8;;;;;;;0.9;89.7;99340;;;;
